createdAt,value
2023-04-12T00:00:15.721Z,100.00
2023-04-12T00:05:22.867Z,100.00
2023-04-12T00:10:26.534Z,100.00
2023-04-12T00:15:29.774Z,100.00
2023-04-12T00:20:34.179Z,100.00
2023-04-12T00:25:38.629Z,100.00
2023-04-12T00:30:41.976Z,100.00
2023-04-12T00:35:46.751Z,100.00
2023-04-12T00:40:51.536Z,100.00
2023-04-12T00:45:56.702Z,100.00
2023-04-12T00:51:04.905Z,100.00
2023-04-12T00:56:12.044Z,100.00
2023-04-12T01:01:17.374Z,100.00
2023-04-12T01:06:51.914Z,100.00
2023-04-12T01:12:17.378Z,100.00
2023-04-12T01:17:25.094Z,100.00
2023-04-12T01:22:46.449Z,100.00
2023-04-12T01:27:54.193Z,100.00
2023-04-12T01:33:00.905Z,100.00
2023-04-12T01:38:05.457Z,100.00
2023-04-12T01:43:11.942Z,100.00
2023-04-12T01:48:14.829Z,100.00
2023-04-12T01:53:24.079Z,100.00
2023-04-12T01:58:31.145Z,100.00
2023-04-12T02:03:34.930Z,100.00
2023-04-12T02:08:38.527Z,100.00
2023-04-12T02:13:42.828Z,100.00
2023-04-12T02:18:45.799Z,100.00
2023-04-12T02:23:53.183Z,100.00
2023-04-12T02:28:58.256Z,100.00
2023-04-12T02:34:01.774Z,100.00
2023-04-12T02:39:05.999Z,100.00
2023-04-12T02:44:12.409Z,100.00
2023-04-12T02:49:20.473Z,100.00
2023-04-12T02:54:24.651Z,100.00
2023-04-12T02:59:32.269Z,100.00
2023-04-12T03:04:47.035Z,100.00
2023-04-12T03:09:55.519Z,100.00
2023-04-12T03:15:02.029Z,100.00
2023-04-12T03:20:10.291Z,100.00
2023-04-12T03:25:18.075Z,100.00
2023-04-12T03:30:28.832Z,100.00
2023-04-12T03:35:33.744Z,100.00
2023-04-12T03:40:38.100Z,100.00
2023-04-12T03:45:44.101Z,100.00
2023-04-12T03:50:48.553Z,100.00
2023-04-12T03:55:57.130Z,100.00
2023-04-12T04:01:07.349Z,100.00
2023-04-12T04:06:12.839Z,100.00
2023-04-12T04:11:16.715Z,100.00
2023-04-12T04:16:27.070Z,100.00
2023-04-12T04:21:32.199Z,100.00
2023-04-12T04:26:38.438Z,100.00
2023-04-12T04:31:49.595Z,100.00
2023-04-12T04:36:53.661Z,100.00
2023-04-12T04:42:00.460Z,100.00
2023-04-12T04:47:15.570Z,100.00
2023-04-12T04:52:19.673Z,100.00
2023-04-12T04:57:24.745Z,100.00
2023-04-12T05:02:31.774Z,100.00
2023-04-12T05:07:36.403Z,100.00
2023-04-12T05:12:40.320Z,100.00
2023-04-12T05:17:45.202Z,100.00
2023-04-12T05:22:50.610Z,100.00
2023-04-12T05:27:53.984Z,100.00
2023-04-12T05:32:58.737Z,100.00
2023-04-12T05:38:03.836Z,100.00
2023-04-12T05:43:07.491Z,100.00
2023-04-12T05:48:12.020Z,100.00
2023-04-12T05:53:15.760Z,100.00
2023-04-12T05:58:19.027Z,100.00
2023-04-12T06:03:25.767Z,100.00
2023-04-12T06:08:36.130Z,100.00
2023-04-12T06:13:40.153Z,100.00
2023-04-12T06:18:45.115Z,100.00
2023-04-12T06:23:50.323Z,100.00
2023-04-12T06:28:54.536Z,100.00
2023-04-12T06:33:59.001Z,100.00
2023-04-12T06:39:03.228Z,100.00
2023-04-12T06:44:06.325Z,100.00
2023-04-12T06:49:10.976Z,100.00
2023-04-12T06:54:15.114Z,100.00
2023-04-12T06:59:18.378Z,100.00
2023-04-12T07:04:22.876Z,100.00
2023-04-12T07:09:26.616Z,100.00
2023-04-12T07:14:29.787Z,100.00
2023-04-12T07:19:34.300Z,100.00
2023-04-12T07:24:37.425Z,100.00
2023-04-12T07:29:40.563Z,100.00
2023-04-12T07:34:44.917Z,100.00
2023-04-12T07:39:48.102Z,100.00
2023-04-12T07:44:51.448Z,100.00
2023-04-12T07:49:57.671Z,100.00
2023-04-12T07:55:00.845Z,100.00
2023-04-12T08:00:05.922Z,100.00
2023-04-12T08:05:17.645Z,100.00
2023-04-12T08:10:21.035Z,100.00
2023-04-12T08:15:24.295Z,100.00
2023-04-12T08:20:29.222Z,100.00
2023-04-12T08:25:32.393Z,100.00
2023-04-12T08:30:35.931Z,100.00
2023-04-12T08:35:41.366Z,100.00
2023-04-12T08:40:46.543Z,100.00
2023-04-12T08:45:51.101Z,100.00
2023-04-12T08:50:57.490Z,97.88
2023-04-12T08:56:00.693Z,94.83
2023-04-12T09:01:04.396Z,97.19
2023-04-12T09:06:09.999Z,98.72
2023-04-12T09:11:24.478Z,100.00
2023-04-12T09:16:38.291Z,100.00
2023-04-12T09:21:54.173Z,100.00
2023-04-12T09:27:04.904Z,100.00
2023-04-12T09:32:09.577Z,96.36
2023-04-12T09:37:17.873Z,92.57
2023-04-12T09:47:39.626Z,88.74
2023-04-12T09:52:44.659Z,90.68
2023-04-12T09:57:50.796Z,89.01
2023-04-12T10:02:55.939Z,85.51
2023-04-12T10:08:01.351Z,77.85
2023-04-12T10:13:07.730Z,81.46
2023-04-12T10:18:12.810Z,83.50
2023-04-12T10:23:17.968Z,80.80
2023-04-12T10:28:23.078Z,79.09
2023-04-12T10:33:32.724Z,67.37
2023-04-12T10:38:48.868Z,71.62
2023-04-12T10:44:27.182Z,66.45
2023-04-12T10:49:30.626Z,69.07
2023-04-12T10:54:36.683Z,73.17
2023-04-12T10:59:52.808Z,70.29
2023-04-12T11:05:08.749Z,71.73
2023-04-12T11:10:33.186Z,70.22
2023-04-12T11:15:36.738Z,61.90
2023-04-12T11:20:41.093Z,73.00
2023-04-12T11:25:50.938Z,64.32
2023-04-12T11:30:54.750Z,66.54
2023-04-12T11:35:57.930Z,66.29
2023-04-12T11:41:02.491Z,69.04
2023-04-12T11:46:06.717Z,69.90
2023-04-12T11:51:31.653Z,68.00
2023-04-12T11:56:37.295Z,53.96
2023-04-12T12:01:40.439Z,62.51
2023-04-12T12:06:44.069Z,63.33
2023-04-12T12:11:51.787Z,55.45
2023-04-12T12:16:56.998Z,61.62
2023-04-12T12:22:15.976Z,65.55
2023-04-12T12:27:22.056Z,68.12
2023-04-12T12:32:25.852Z,69.42
2023-04-12T12:37:30.247Z,72.15
2023-04-12T12:42:35.984Z,73.12
2023-04-12T12:47:50.979Z,78.06
2023-04-12T12:52:55.747Z,81.13
2023-04-12T12:58:07.975Z,80.52
2023-04-12T13:03:12.014Z,80.56
2023-04-12T13:08:15.518Z,80.66
2023-04-12T13:13:21.011Z,82.38
2023-04-12T13:18:24.017Z,82.43
2023-04-12T13:23:27.358Z,77.80
2023-04-12T13:28:32.173Z,80.46
2023-04-12T13:33:35.556Z,81.38
2023-04-12T13:38:38.624Z,78.52
2023-04-12T13:43:43.414Z,82.58
2023-04-12T13:48:46.484Z,85.63
2023-04-12T13:53:52.384Z,85.86
2023-04-12T13:58:59.237Z,85.35
2023-04-12T14:04:02.964Z,81.88
2023-04-12T14:09:07.107Z,84.89
2023-04-12T14:14:11.721Z,88.67
2023-04-12T14:19:14.961Z,91.17
2023-04-12T14:24:19.287Z,94.99
2023-04-12T14:29:23.820Z,95.70
2023-04-12T14:34:27.030Z,99.95
2023-04-12T14:39:31.023Z,100.00
2023-04-12T14:44:35.466Z,100.00
2023-04-12T14:49:38.637Z,100.00
2023-04-12T14:54:41.760Z,100.00
2023-04-12T14:59:46.555Z,100.00
2023-04-12T15:04:51.220Z,100.00
2023-04-12T15:09:55.458Z,93.06
2023-04-12T15:15:00.214Z,97.50
2023-04-12T15:20:09.253Z,98.49
2023-04-12T15:25:12.759Z,97.72
2023-04-12T15:30:18.076Z,92.70
2023-04-12T15:35:27.005Z,93.25
2023-04-12T15:40:30.687Z,93.58
2023-04-12T15:45:35.552Z,93.55
2023-04-12T15:50:39.079Z,95.71
2023-04-12T15:55:45.389Z,87.20
2023-04-12T16:01:00.744Z,90.86
2023-04-12T16:06:06.035Z,90.63
2023-04-12T16:11:12.214Z,89.32
2023-04-12T16:16:18.582Z,91.76
2023-04-12T16:21:23.434Z,91.68
2023-04-12T16:26:27.281Z,91.65
2023-04-12T16:31:32.130Z,87.34
2023-04-12T16:36:35.763Z,85.08
2023-04-12T16:41:38.925Z,82.66
2023-04-12T16:46:45.454Z,85.27
2023-04-12T16:51:48.620Z,85.68
2023-04-12T16:56:51.729Z,84.80
2023-04-12T17:01:56.114Z,84.76
2023-04-12T17:06:59.198Z,84.99
2023-04-12T17:12:02.438Z,82.50
2023-04-12T17:17:07.456Z,85.78
2023-04-12T17:22:10.928Z,86.21
2023-04-12T17:27:14.305Z,82.27
2023-04-12T17:32:19.053Z,82.76
2023-04-12T17:37:23.014Z,82.49
2023-04-12T17:42:29.390Z,81.30
2023-04-12T17:47:37.629Z,81.61
2023-04-12T17:52:41.241Z,84.29
2023-04-12T17:57:44.652Z,83.72
2023-04-12T18:02:52.848Z,85.05
2023-04-12T18:07:57.103Z,86.14
2023-04-12T18:13:00.330Z,85.25
2023-04-12T18:18:05.358Z,85.50
2023-04-12T18:23:08.618Z,85.90
2023-04-12T18:28:19.036Z,86.42
2023-04-12T18:33:24.221Z,86.63
2023-04-12T18:38:32.484Z,86.01
2023-04-12T18:43:35.687Z,86.58
2023-04-12T18:48:41.660Z,84.99
2023-04-12T18:53:44.696Z,86.85
2023-04-12T18:58:55.032Z,87.16
2023-04-12T19:04:04.375Z,86.73
2023-04-12T19:09:08.929Z,87.18
2023-04-12T19:14:12.163Z,88.93
2023-04-12T19:19:16.852Z,90.16
2023-04-12T19:24:20.314Z,90.70
2023-04-12T19:29:24.401Z,91.78
2023-04-12T19:34:29.145Z,92.38
2023-04-12T19:39:33.523Z,92.35
2023-04-12T19:44:38.308Z,92.54
2023-04-12T19:49:44.876Z,92.57
2023-04-12T19:54:48.499Z,92.28
2023-04-12T19:59:52.314Z,91.84
2023-04-12T20:04:57.065Z,90.29
2023-04-12T20:10:00.668Z,89.97
2023-04-12T20:15:04.545Z,90.84
2023-04-12T20:20:12.847Z,91.10
2023-04-12T20:25:16.615Z,90.57
2023-04-12T20:30:26.254Z,90.65
2023-04-12T20:35:31.020Z,90.76
2023-04-12T20:40:36.052Z,90.35
2023-04-12T20:45:39.464Z,90.18
2023-04-12T20:50:44.115Z,90.34
2023-04-12T20:55:54.951Z,90.57
2023-04-12T21:00:58.890Z,90.74
2023-04-12T21:06:03.937Z,90.51
2023-04-12T21:11:07.379Z,90.06
2023-04-12T21:16:16.224Z,89.29
2023-04-12T21:21:20.994Z,89.49
2023-04-12T21:26:24.414Z,89.41
2023-04-12T21:31:29.216Z,89.08
2023-04-12T21:36:34.235Z,88.60
2023-04-12T21:41:37.508Z,88.93
2023-04-12T21:46:40.677Z,89.01
2023-04-12T21:51:46.182Z,90.08
2023-04-12T21:56:51.752Z,90.74
2023-04-12T22:01:54.882Z,92.78
2023-04-12T22:07:02.206Z,94.14
2023-04-12T22:12:06.705Z,95.82
2023-04-12T22:17:09.977Z,97.48
2023-04-12T22:22:16.394Z,99.51
2023-04-12T22:27:19.486Z,100.00
2023-04-12T22:32:22.765Z,100.00
2023-04-12T22:37:27.793Z,100.00
2023-04-12T22:42:31.140Z,100.00
2023-04-12T22:47:34.670Z,100.00
2023-04-12T22:52:39.839Z,100.00
2023-04-12T22:57:43.594Z,100.00
2023-04-12T23:02:48.750Z,100.00
2023-04-12T23:07:53.402Z,100.00
2023-04-12T23:12:56.430Z,100.00
2023-04-12T23:18:01.805Z,100.00
2023-04-12T23:23:06.390Z,100.00
2023-04-12T23:28:13.271Z,100.00
2023-04-12T23:33:18.354Z,100.00
2023-04-12T23:38:32.034Z,100.00
2023-04-12T23:43:35.910Z,100.00
2023-04-12T23:48:39.195Z,100.00
2023-04-12T23:53:43.641Z,100.00
2023-04-12T23:58:47.210Z,100.00
